sensor_id;sensor_type;location;lat;lon;timestamp;pressure;altitude;pressure_sealevel;temperature;humidity
31096;BME280;17749;51.962;8.560;2023-05-27T05:00:45;101291.72;;;8.72;100.00
31096;BME280;17749;51.962;8.560;2023-05-27T05:03:22;101285.47;;;8.74;100.00
31096;BME280;17749;51.962;8.560;2023-05-27T05:06:07;101283.69;;;8.78;100.00
31096;BME280;17749;51.962;8.560;2023-05-27T05:08:34;101281.84;;;8.82;100.00
31096;BME280;17749;51.962;8.560;2023-05-27T05:11:02;101285.31;;;8.87;100.00
31096;BME280;17749;51.962;8.560;2023-05-27T05:13:29;101289.59;;;8.95;100.00
31096;BME280;17749;51.962;8.560;2023-05-27T05:15:56;101283.31;;;9.04;100.00
31096;BME280;17749;51.962;8.560;2023-05-27T05:18:27;101285.91;;;9.07;100.00
31096;BME280;17749;51.962;8.560;2023-05-27T05:20:58;101285.84;;;9.10;100.00
31096;BME280;17749;51.962;8.560;2023-05-27T05:23:33;101277.78;;;9.16;100.00
31096;BME280;17749;51.962;8.560;2023-05-27T05:26:05;101285.63;;;9.26;100.00
31096;BME280;17749;51.962;8.560;2023-05-27T05:28:37;101288.13;;;9.35;100.00
31096;BME280;17749;51.962;8.560;2023-05-27T05:31:13;101280.00;;;9.42;100.00
31096;BME280;17749;51.962;8.560;2023-05-27T05:33:54;101288.66;;;9.57;100.00
31096;BME280;17749;51.962;8.560;2023-05-27T05:36:29;101284.00;;;9.70;100.00
31096;BME280;17749;51.962;8.560;2023-05-27T05:39:04;101286.41;;;9.82;100.00
31096;BME280;17749;51.962;8.560;2023-05-27T05:41:44;101283.47;;;9.99;100.00
31096;BME280;17749;51.962;8.560;2023-05-27T05:44:19;101279.63;;;10.14;100.00
31096;BME280;17749;51.962;8.560;2023-05-27T05:47:01;101285.50;;;10.33;100.00
31096;BME280;17749;51.962;8.560;2023-05-27T05:49:29;101285.06;;;10.54;100.00
31096;BME280;17749;51.962;8.560;2023-05-27T05:52:07;101274.88;;;10.73;100.00
31096;BME280;17749;51.962;8.560;2023-05-27T05:54:36;101280.56;;;10.96;100.00
31096;BME280;17749;51.962;8.560;2023-05-27T05:57:06;101277.31;;;11.21;100.00
31096;BME280;17749;51.962;8.560;2023-05-27T05:59:33;101289.22;;;11.44;100.00
31096;BME280;17749;51.962;8.560;2023-05-27T06:02:02;101292.91;;;11.74;100.00
31096;BME280;17749;51.962;8.560;2023-05-27T06:04:38;101294.19;;;11.95;100.00
31096;BME280;17749;51.962;8.560;2023-05-27T06:07:05;101289.22;;;12.12;100.00
31096;BME280;17749;51.962;8.560;2023-05-27T06:09:44;101284.88;;;12.41;100.00
31096;BME280;17749;51.962;8.560;2023-05-27T06:12:20;101283.00;;;12.74;100.00
31096;BME280;17749;51.962;8.560;2023-05-27T06:14:52;101291.84;;;13.04;100.00
31096;BME280;17749;51.962;8.560;2023-05-27T06:17:26;101286.13;;;13.16;100.00
31096;BME280;17749;51.962;8.560;2023-05-27T06:19:53;101283.00;;;13.32;100.00
31096;BME280;17749;51.962;8.560;2023-05-27T06:22:21;101288.56;;;13.52;100.00
31096;BME280;17749;51.962;8.560;2023-05-27T06:25:32;101291.22;;;13.79;100.00
31096;BME280;17749;51.962;8.560;2023-05-27T06:28:06;101291.66;;;13.92;100.00
31096;BME280;17749;51.962;8.560;2023-05-27T06:30:33;101275.81;;;14.11;100.00
31096;BME280;17749;51.962;8.560;2023-05-27T06:33:02;101287.84;;;14.24;100.00
31096;BME280;17749;51.962;8.560;2023-05-27T06:35:34;101295.25;;;14.41;100.00
31096;BME280;17749;51.962;8.560;2023-05-27T06:38:09;101290.28;;;14.55;100.00
31096;BME280;17749;51.962;8.560;2023-05-27T06:40:39;101283.47;;;14.70;100.00
31096;BME280;17749;51.962;8.560;2023-05-27T06:43:15;101290.81;;;14.88;100.00
31096;BME280;17749;51.962;8.560;2023-05-27T06:46:20;101289.47;;;15.22;100.00
31096;BME280;17749;51.962;8.560;2023-05-27T06:49:32;101285.63;;;15.50;100.00
31096;BME280;17749;51.962;8.560;2023-05-27T06:52:24;101286.63;;;15.90;100.00
31096;BME280;17749;51.962;8.560;2023-05-27T06:55:18;101284.09;;;16.07;100.00
31096;BME280;17749;51.962;8.560;2023-05-27T06:58:15;101269.28;;;16.38;100.00
31096;BME280;17749;51.962;8.560;2023-05-27T07:00:51;101262.91;;;16.59;100.00
31096;BME280;17749;51.962;8.560;2023-05-27T07:03:39;101256.47;;;16.82;100.00
31096;BME280;17749;51.962;8.560;2023-05-27T07:10:28;101255.28;;;17.43;100.00
31096;BME280;17749;51.962;8.560;2023-05-27T07:12:56;101252.38;;;17.83;100.00
31096;BME280;17749;51.962;8.560;2023-05-27T07:15:36;101252.25;;;18.19;100.00
31096;BME280;17749;51.962;8.560;2023-05-27T07:18:03;101251.03;;;18.58;100.00
31096;BME280;17749;51.962;8.560;2023-05-27T07:20:31;101246.50;;;18.76;100.00
31096;BME280;17749;51.962;8.560;2023-05-27T07:23:02;101247.00;;;18.98;100.00
31096;BME280;17749;51.962;8.560;2023-05-27T07:25:31;101245.94;;;19.17;100.00
31096;BME280;17749;51.962;8.560;2023-05-27T07:27:58;101242.38;;;19.46;100.00
31096;BME280;17749;51.962;8.560;2023-05-27T07:30:26;101236.25;;;19.75;100.00
31096;BME280;17749;51.962;8.560;2023-05-27T07:33:01;101255.22;;;19.89;100.00
31096;BME280;17749;51.962;8.560;2023-05-27T07:35:28;101231.28;;;19.97;100.00
31096;BME280;17749;51.962;8.560;2023-05-27T07:37:56;101237.06;;;20.20;100.00
31096;BME280;17749;51.962;8.560;2023-05-27T07:40:24;101226.25;;;20.48;98.52
31096;BME280;17749;51.962;8.560;2023-05-27T07:42:51;101234.97;;;20.10;90.11
31096;BME280;17749;51.962;8.560;2023-05-27T07:45:18;101222.81;;;20.18;95.81
31096;BME280;17749;51.962;8.560;2023-05-27T07:47:45;101229.50;;;19.96;94.64
31096;BME280;17749;51.962;8.560;2023-05-27T07:50:12;101231.63;;;19.91;94.63
31096;BME280;17749;51.962;8.560;2023-05-27T07:52:49;101222.81;;;20.18;96.78
31096;BME280;17749;51.962;8.560;2023-05-27T07:55:25;101215.81;;;20.42;94.12
31096;BME280;17749;51.962;8.560;2023-05-27T07:57:54;101221.88;;;20.74;91.18
31096;BME280;17749;51.962;8.560;2023-05-27T08:00:25;101221.44;;;21.09;92.12
31096;BME280;17749;51.962;8.560;2023-05-27T08:02:52;101214.22;;;21.50;88.74
31096;BME280;17749;51.962;8.560;2023-05-27T08:05:34;101211.53;;;21.62;85.05
31096;BME280;17749;51.962;8.560;2023-05-27T08:08:23;101209.91;;;21.60;83.77
31096;BME280;17749;51.962;8.560;2023-05-27T08:11:10;101210.50;;;21.51;83.93
31096;BME280;17749;51.962;8.560;2023-05-27T08:14:00;101209.88;;;21.47;85.35
31096;BME280;17749;51.962;8.560;2023-05-27T08:16:57;101202.94;;;21.56;83.79
31096;BME280;17749;51.962;8.560;2023-05-27T08:19:45;101195.28;;;21.62;81.24
31096;BME280;17749;51.962;8.560;2023-05-27T08:22:20;101192.09;;;21.56;82.01
31096;BME280;17749;51.962;8.560;2023-05-27T08:25:19;101188.88;;;21.76;82.30
31096;BME280;17749;51.962;8.560;2023-05-27T08:28:04;101182.38;;;21.79;81.82
31096;BME280;17749;51.962;8.560;2023-05-27T08:30:42;101192.69;;;21.99;82.54
31096;BME280;17749;51.962;8.560;2023-05-27T08:33:15;101171.97;;;21.98;81.86
31096;BME280;17749;51.962;8.560;2023-05-27T08:35:42;101164.03;;;22.08;80.80
31096;BME280;17749;51.962;8.560;2023-05-27T08:38:10;101173.91;;;22.09;81.76
31096;BME280;17749;51.962;8.560;2023-05-27T08:40:39;101163.50;;;21.90;81.19
31096;BME280;17749;51.962;8.560;2023-05-27T08:43:07;101167.50;;;21.84;80.70
31096;BME280;17749;51.962;8.560;2023-05-27T08:45:39;101168.50;;;21.83;76.87
31096;BME280;17749;51.962;8.560;2023-05-27T08:48:11;101161.13;;;21.85;77.90
31096;BME280;17749;51.962;8.560;2023-05-27T08:50:40;101165.03;;;21.81;79.77
31096;BME280;17749;51.962;8.560;2023-05-27T08:53:08;101151.38;;;21.83;80.09
31096;BME280;17749;51.962;8.560;2023-05-27T08:55:37;101157.88;;;21.80;77.80
31096;BME280;17749;51.962;8.560;2023-05-27T08:58:07;101160.44;;;21.69;78.42
31096;BME280;17749;51.962;8.560;2023-05-27T09:00:40;101142.78;;;21.63;77.59
31096;BME280;17749;51.962;8.560;2023-05-27T09:03:15;101146.00;;;21.43;76.84
31096;BME280;17749;51.962;8.560;2023-05-27T09:05:44;101143.13;;;21.59;76.76
31096;BME280;17749;51.962;8.560;2023-05-27T09:08:11;101129.22;;;22.02;77.59
31096;BME280;17749;51.962;8.560;2023-05-27T09:10:39;101135.06;;;22.21;73.93
31096;BME280;17749;51.962;8.560;2023-05-27T09:13:07;101135.28;;;22.05;74.20
31096;BME280;17749;51.962;8.560;2023-05-27T09:15:35;101134.00;;;21.85;71.03
31096;BME280;17749;51.962;8.560;2023-05-27T09:18:04;101123.31;;;21.31;73.70
31096;BME280;17749;51.962;8.560;2023-05-27T09:20:31;101126.03;;;21.31;72.57
31096;BME280;17749;51.962;8.560;2023-05-27T09:23:01;101125.56;;;21.52;74.80
31096;BME280;17749;51.962;8.560;2023-05-27T09:25:28;101125.75;;;21.87;72.31
31096;BME280;17749;51.962;8.560;2023-05-27T09:27:55;101123.56;;;22.18;72.70
31096;BME280;17749;51.962;8.560;2023-05-27T09:30:24;101125.09;;;22.09;72.93
31096;BME280;17749;51.962;8.560;2023-05-27T09:33:00;101129.00;;;21.92;69.77
31096;BME280;17749;51.962;8.560;2023-05-27T09:35:27;101121.41;;;22.10;70.50
31096;BME280;17749;51.962;8.560;2023-05-27T09:38:05;101131.78;;;22.29;71.49
31096;BME280;17749;51.962;8.560;2023-05-27T09:40:35;101129.53;;;22.36;71.36
31096;BME280;17749;51.962;8.560;2023-05-27T09:43:02;101131.13;;;22.38;71.91
31096;BME280;17749;51.962;8.560;2023-05-27T09:45:29;101126.78;;;22.48;69.73
31096;BME280;17749;51.962;8.560;2023-05-27T09:47:57;101128.34;;;22.27;69.57
31096;BME280;17749;51.962;8.560;2023-05-27T09:50:25;101124.63;;;22.15;68.17
31096;BME280;17749;51.962;8.560;2023-05-27T09:52:53;101120.53;;;22.22;71.46
31096;BME280;17749;51.962;8.560;2023-05-27T09:55:38;101117.63;;;22.49;71.31
31096;BME280;17749;51.962;8.560;2023-05-27T09:58:06;101122.69;;;22.91;70.92
31096;BME280;17749;51.962;8.560;2023-05-27T10:00:33;101115.47;;;23.03;69.67
31096;BME280;17749;51.962;8.560;2023-05-27T10:03:01;101115.91;;;22.72;69.55
31096;BME280;17749;51.962;8.560;2023-05-27T10:05:30;101112.94;;;22.27;68.39
31096;BME280;17749;51.962;8.560;2023-05-27T10:07:58;101109.75;;;22.34;70.31
31096;BME280;17749;51.962;8.560;2023-05-27T10:10:28;101095.53;;;22.43;70.61
31096;BME280;17749;51.962;8.560;2023-05-27T10:12:56;101100.97;;;22.43;68.13
31096;BME280;17749;51.962;8.560;2023-05-27T10:15:26;101093.38;;;22.35;68.07
31096;BME280;17749;51.962;8.560;2023-05-27T10:17:55;101089.06;;;22.07;69.88
31096;BME280;17749;51.962;8.560;2023-05-27T10:20:36;101094.00;;;22.39;70.60
31096;BME280;17749;51.962;8.560;2023-05-27T10:23:14;101091.13;;;22.53;68.36
31096;BME280;17749;51.962;8.560;2023-05-27T10:25:46;101088.94;;;22.58;65.31
31096;BME280;17749;51.962;8.560;2023-05-27T10:28:32;101095.41;;;22.68;67.05
31096;BME280;17749;51.962;8.560;2023-05-27T10:31:17;101086.16;;;22.47;67.26
31096;BME280;17749;51.962;8.560;2023-05-27T10:33:47;101079.41;;;22.52;68.36
31096;BME280;17749;51.962;8.560;2023-05-27T10:36:32;101087.28;;;22.31;67.21
31096;BME280;17749;51.962;8.560;2023-05-27T10:39:12;101080.72;;;22.23;63.65
31096;BME280;17749;51.962;8.560;2023-05-27T10:44:11;101072.19;;;22.64;64.78
31096;BME280;17749;51.962;8.560;2023-05-27T10:46:39;101068.59;;;22.88;67.79
31096;BME280;17749;51.962;8.560;2023-05-27T10:49:15;101070.91;;;23.05;67.55
31096;BME280;17749;51.962;8.560;2023-05-27T10:51:43;101063.06;;;23.25;64.68
31096;BME280;17749;51.962;8.560;2023-05-27T10:54:10;101059.22;;;22.92;62.09
31096;BME280;17749;51.962;8.560;2023-05-27T10:56:51;101057.25;;;22.94;64.40
31096;BME280;17749;51.962;8.560;2023-05-27T10:59:20;101063.22;;;22.99;64.50
31096;BME280;17749;51.962;8.560;2023-05-27T11:01:53;101056.59;;;23.03;63.66
31096;BME280;17749;51.962;8.560;2023-05-27T11:04:21;101054.44;;;22.95;64.20
31096;BME280;17749;51.962;8.560;2023-05-27T11:06:59;101043.38;;;23.10;63.35
31096;BME280;17749;51.962;8.560;2023-05-27T11:09:31;101049.06;;;23.07;62.54
31096;BME280;17749;51.962;8.560;2023-05-27T11:12:13;101034.13;;;23.12;61.63
31096;BME280;17749;51.962;8.560;2023-05-27T11:14:44;101039.88;;;23.32;64.21
31096;BME280;17749;51.962;8.560;2023-05-27T11:17:14;101036.56;;;23.04;58.16
31096;BME280;17749;51.962;8.560;2023-05-27T11:19:42;101043.47;;;22.73;59.75
31096;BME280;17749;51.962;8.560;2023-05-27T11:22:11;101034.50;;;22.84;59.98
31096;BME280;17749;51.962;8.560;2023-05-27T11:24:39;101034.38;;;23.09;59.92
31096;BME280;17749;51.962;8.560;2023-05-27T11:27:14;101027.69;;;23.02;59.32
31096;BME280;17749;51.962;8.560;2023-05-27T11:29:52;101024.63;;;23.18;59.58
31096;BME280;17749;51.962;8.560;2023-05-27T11:32:19;101028.44;;;23.15;58.33
31096;BME280;17749;51.962;8.560;2023-05-27T11:34:47;101020.16;;;22.82;58.91
31096;BME280;17749;51.962;8.560;2023-05-27T11:37:15;101015.28;;;22.63;58.56
31096;BME280;17749;51.962;8.560;2023-05-27T11:39:53;101003.56;;;22.62;61.00
31096;BME280;17749;51.962;8.560;2023-05-27T11:42:23;101004.66;;;22.95;61.10
31096;BME280;17749;51.962;8.560;2023-05-27T11:44:52;101015.34;;;22.98;59.02
31096;BME280;17749;51.962;8.560;2023-05-27T11:47:21;101011.38;;;23.02;59.04
31096;BME280;17749;51.962;8.560;2023-05-27T11:49:49;101004.97;;;23.03;59.93
31096;BME280;17749;51.962;8.560;2023-05-27T11:52:17;100992.06;;;23.29;60.12
31096;BME280;17749;51.962;8.560;2023-05-27T11:54:49;100994.53;;;23.66;62.97
31096;BME280;17749;51.962;8.560;2023-05-27T11:57:24;100989.34;;;23.86;60.32
31096;BME280;17749;51.962;8.560;2023-05-27T11:59:51;100983.78;;;23.76;59.75
31096;BME280;17749;51.962;8.560;2023-05-27T12:02:18;100972.91;;;23.87;58.97
31096;BME280;17749;51.962;8.560;2023-05-27T12:04:48;100976.13;;;23.92;57.73
31096;BME280;17749;51.962;8.560;2023-05-27T12:07:15;100975.13;;;23.59;57.81
31096;BME280;17749;51.962;8.560;2023-05-27T12:09:47;100963.00;;;23.41;60.07
31096;BME280;17749;51.962;8.560;2023-05-27T12:12:18;100966.97;;;23.59;59.69
31096;BME280;17749;51.962;8.560;2023-05-27T12:14:53;100977.97;;;23.69;60.07
31096;BME280;17749;51.962;8.560;2023-05-27T12:17:20;100966.44;;;23.66;57.79
31096;BME280;17749;51.962;8.560;2023-05-27T12:19:47;100952.13;;;23.52;58.47
31096;BME280;17749;51.962;8.560;2023-05-27T12:22:14;100942.25;;;23.51;58.51
31096;BME280;17749;51.962;8.560;2023-05-27T12:24:42;100939.53;;;23.29;57.42
31096;BME280;17749;51.962;8.560;2023-05-27T12:27:09;100939.03;;;23.24;57.90
31096;BME280;17749;51.962;8.560;2023-05-27T12:29:36;100948.56;;;23.40;58.11
31096;BME280;17749;51.962;8.560;2023-05-27T12:32:04;100943.25;;;23.16;56.10
31096;BME280;17749;51.962;8.560;2023-05-27T12:34:31;100926.69;;;23.31;57.24
31096;BME280;17749;51.962;8.560;2023-05-27T12:36:58;100925.47;;;23.35;54.99
31096;BME280;17749;51.962;8.560;2023-05-27T12:39:25;100925.69;;;23.54;58.32
31096;BME280;17749;51.962;8.560;2023-05-27T12:41:52;100929.50;;;23.63;58.66
31096;BME280;17749;51.962;8.560;2023-05-27T12:44:19;100915.94;;;23.52;57.50
31096;BME280;17749;51.962;8.560;2023-05-27T12:46:46;100915.56;;;23.56;57.46
31096;BME280;17749;51.962;8.560;2023-05-27T12:49:13;100915.78;;;23.65;56.99
31096;BME280;17749;51.962;8.560;2023-05-27T12:51:40;100915.09;;;23.74;56.48
31096;BME280;17749;51.962;8.560;2023-05-27T12:54:07;100928.38;;;23.88;56.70
31096;BME280;17749;51.962;8.560;2023-05-27T12:56:34;100910.34;;;23.76;56.45
31096;BME280;17749;51.962;8.560;2023-05-27T12:59:01;100913.28;;;23.95;58.42
31096;BME280;17749;51.962;8.560;2023-05-27T13:01:27;100901.34;;;24.08;59.28
31096;BME280;17749;51.962;8.560;2023-05-27T13:03:56;100914.03;;;23.97;58.05
31096;BME280;17749;51.962;8.560;2023-05-27T13:06:22;100902.41;;;23.95;57.01
31096;BME280;17749;51.962;8.560;2023-05-27T13:08:49;100897.22;;;23.92;57.77
31096;BME280;17749;51.962;8.560;2023-05-27T13:11:17;100896.97;;;23.95;57.92
31096;BME280;17749;51.962;8.560;2023-05-27T13:13:44;100889.94;;;23.70;57.56
31096;BME280;17749;51.962;8.560;2023-05-27T13:16:11;100883.69;;;23.58;59.18
31096;BME280;17749;51.962;8.560;2023-05-27T13:18:39;100872.97;;;23.34;57.93
31096;BME280;17749;51.962;8.560;2023-05-27T13:21:06;100874.47;;;23.71;58.93
31096;BME280;17749;51.962;8.560;2023-05-27T13:23:33;100865.88;;;23.77;57.99
31096;BME280;17749;51.962;8.560;2023-05-27T13:26:00;100869.94;;;23.60;56.90
31096;BME280;17749;51.962;8.560;2023-05-27T13:28:27;100869.56;;;23.65;58.60
31096;BME280;17749;51.962;8.560;2023-05-27T13:30:54;100861.78;;;23.71;57.70
31096;BME280;17749;51.962;8.560;2023-05-27T13:33:22;100854.81;;;23.35;57.99
31096;BME280;17749;51.962;8.560;2023-05-27T13:35:49;100849.38;;;23.35;58.64
31096;BME280;17749;51.962;8.560;2023-05-27T13:38:17;100841.19;;;23.46;59.54
31096;BME280;17749;51.962;8.560;2023-05-27T13:40:44;100851.44;;;23.54;59.14
31096;BME280;17749;51.962;8.560;2023-05-27T13:43:13;100832.81;;;23.38;57.67
31096;BME280;17749;51.962;8.560;2023-05-27T13:45:40;100833.56;;;23.40;59.48
31096;BME280;17749;51.962;8.560;2023-05-27T13:48:07;100845.94;;;23.65;58.62
31096;BME280;17749;51.962;8.560;2023-05-27T13:50:35;100834.59;;;23.71;59.00
31096;BME280;17749;51.962;8.560;2023-05-27T13:53:02;100839.81;;;23.52;57.53
31096;BME280;17749;51.962;8.560;2023-05-27T13:55:30;100829.88;;;23.30;59.78
31096;BME280;17749;51.962;8.560;2023-05-27T13:57:57;100831.81;;;23.50;60.94
31096;BME280;17749;51.962;8.560;2023-05-27T14:00:24;100828.78;;;23.65;60.04
31096;BME280;17749;51.962;8.560;2023-05-27T14:02:52;100824.16;;;23.33;57.35
31096;BME280;17749;51.962;8.560;2023-05-27T14:05:21;100826.41;;;23.28;59.10
31096;BME280;17749;51.962;8.560;2023-05-27T14:07:48;100822.19;;;23.35;60.12
31096;BME280;17749;51.962;8.560;2023-05-27T14:10:15;100825.41;;;23.40;59.70
31096;BME280;17749;51.962;8.560;2023-05-27T14:12:42;100811.59;;;23.32;59.43
31096;BME280;17749;51.962;8.560;2023-05-27T14:15:10;100812.06;;;23.26;61.56
31096;BME280;17749;51.962;8.560;2023-05-27T14:17:38;100806.97;;;23.44;60.04
31096;BME280;17749;51.962;8.560;2023-05-27T14:20:06;100802.16;;;23.36;60.35
31096;BME280;17749;51.962;8.560;2023-05-27T14:22:37;100806.28;;;23.19;59.68
31096;BME280;17749;51.962;8.560;2023-05-27T14:25:06;100790.97;;;22.84;60.70
31096;BME280;17749;51.962;8.560;2023-05-27T14:27:33;100789.38;;;22.93;60.84
31096;BME280;17749;51.962;8.560;2023-05-27T14:30:00;100783.69;;;22.96;61.88
31096;BME280;17749;51.962;8.560;2023-05-27T14:32:27;100782.81;;;22.95;60.87
31096;BME280;17749;51.962;8.560;2023-05-27T14:34:54;100782.09;;;22.82;60.94
31096;BME280;17749;51.962;8.560;2023-05-27T14:37:23;100779.38;;;22.93;60.94
31096;BME280;17749;51.962;8.560;2023-05-27T14:39:53;100775.31;;;22.99;61.25
31096;BME280;17749;51.962;8.560;2023-05-27T14:42:20;100771.47;;;23.02;62.30
31096;BME280;17749;51.962;8.560;2023-05-27T14:44:47;100769.38;;;23.05;62.50
31096;BME280;17749;51.962;8.560;2023-05-27T14:47:14;100766.41;;;23.19;63.79
31096;BME280;17749;51.962;8.560;2023-05-27T14:49:41;100758.69;;;23.36;61.58
31096;BME280;17749;51.962;8.560;2023-05-27T14:52:08;100765.91;;;23.14;59.60
31096;BME280;17749;51.962;8.560;2023-05-27T14:54:35;100761.47;;;23.02;60.05
31096;BME280;17749;51.962;8.560;2023-05-27T14:57:02;100764.44;;;22.88;59.91
31096;BME280;17749;51.962;8.560;2023-05-27T14:59:29;100764.94;;;22.93;61.24
31096;BME280;17749;51.962;8.560;2023-05-27T15:01:56;100762.69;;;22.87;59.87
31096;BME280;17749;51.962;8.560;2023-05-27T15:04:23;100761.84;;;22.86;61.53
31096;BME280;17749;51.962;8.560;2023-05-27T15:06:50;100754.06;;;22.82;60.61
31096;BME280;17749;51.962;8.560;2023-05-27T15:09:17;100753.56;;;22.88;61.54
31096;BME280;17749;51.962;8.560;2023-05-27T15:11:44;100758.16;;;22.87;59.84
31096;BME280;17749;51.962;8.560;2023-05-27T15:14:11;100760.38;;;22.82;61.44
31096;BME280;17749;51.962;8.560;2023-05-27T15:16:37;100749.38;;;22.84;60.99
31096;BME280;17749;51.962;8.560;2023-05-27T15:19:05;100752.34;;;22.69;60.24
31096;BME280;17749;51.962;8.560;2023-05-27T15:21:32;100756.16;;;22.56;60.24
31096;BME280;17749;51.962;8.560;2023-05-27T15:23:59;100748.03;;;22.33;59.76
31096;BME280;17749;51.962;8.560;2023-05-27T15:26:26;100745.16;;;22.35;61.71
31096;BME280;17749;51.962;8.560;2023-05-27T15:28:53;100739.28;;;22.41;61.18
31096;BME280;17749;51.962;8.560;2023-05-27T15:31:20;100742.84;;;22.41;61.56
31096;BME280;17749;51.962;8.560;2023-05-27T15:33:49;100751.38;;;22.48;61.18
31096;BME280;17749;51.962;8.560;2023-05-27T15:36:18;100740.25;;;22.28;62.03
31096;BME280;17749;51.962;8.560;2023-05-27T15:38:45;100741.91;;;22.07;62.09
31096;BME280;17749;51.962;8.560;2023-05-27T15:41:13;100744.09;;;22.02;61.38
31096;BME280;17749;51.962;8.560;2023-05-27T15:43:40;100743.56;;;21.85;61.03
31096;BME280;17749;51.962;8.560;2023-05-27T15:46:07;100736.16;;;21.87;61.91
31096;BME280;17749;51.962;8.560;2023-05-27T15:48:35;100732.25;;;21.92;60.89
31096;BME280;17749;51.962;8.560;2023-05-27T15:51:02;100739.19;;;21.96;61.86
31096;BME280;17749;51.962;8.560;2023-05-27T15:53:29;100732.84;;;21.95;61.75
31096;BME280;17749;51.962;8.560;2023-05-27T15:55:56;100725.31;;;21.87;62.21
31096;BME280;17749;51.962;8.560;2023-05-27T15:58:23;100732.50;;;21.88;64.11
31096;BME280;17749;51.962;8.560;2023-05-27T16:00:50;100732.13;;;21.93;63.58
31096;BME280;17749;51.962;8.560;2023-05-27T16:03:17;100726.31;;;21.86;63.12
31096;BME280;17749;51.962;8.560;2023-05-27T16:05:45;100724.09;;;21.80;62.43
31096;BME280;17749;51.962;8.560;2023-05-27T16:08:12;100716.78;;;21.70;62.22
31096;BME280;17749;51.962;8.560;2023-05-27T16:11:05;100716.53;;;21.61;63.14
31096;BME280;17749;51.962;8.560;2023-05-27T16:13:32;100713.41;;;21.55;63.13
31096;BME280;17749;51.962;8.560;2023-05-27T16:15:59;100709.16;;;21.39;62.72
31096;BME280;17749;51.962;8.560;2023-05-27T16:18:26;100710.03;;;21.27;64.14
31096;BME280;17749;51.962;8.560;2023-05-27T16:20:53;100709.50;;;21.22;63.63
31096;BME280;17749;51.962;8.560;2023-05-27T16:23:21;100705.56;;;21.15;63.38
31096;BME280;17749;51.962;8.560;2023-05-27T16:25:48;100697.88;;;21.09;63.56
31096;BME280;17749;51.962;8.560;2023-05-27T16:28:20;100698.44;;;21.01;64.60
31096;BME280;17749;51.962;8.560;2023-05-27T16:30:47;100697.81;;;20.97;64.59
31096;BME280;17749;51.962;8.560;2023-05-27T16:33:14;100692.31;;;20.99;66.00
31096;BME280;17749;51.962;8.560;2023-05-27T16:35:41;100688.94;;;20.95;65.41
31096;BME280;17749;51.962;8.560;2023-05-27T16:38:09;100695.56;;;20.91;66.07
31096;BME280;17749;51.962;8.560;2023-05-27T16:40:37;100691.81;;;20.81;65.33
31096;BME280;17749;51.962;8.560;2023-05-27T16:43:04;100690.28;;;20.77;66.83
31096;BME280;17749;51.962;8.560;2023-05-27T16:45:32;100680.94;;;20.70;66.44
31096;BME280;17749;51.962;8.560;2023-05-27T16:47:59;100680.16;;;20.68;67.20
31096;BME280;17749;51.962;8.560;2023-05-27T16:50:30;100675.19;;;20.62;67.45
31096;BME280;17749;51.962;8.560;2023-05-27T16:52:57;100679.09;;;20.57;67.77
31096;BME280;17749;51.962;8.560;2023-05-27T16:55:24;100675.41;;;20.46;66.72
31096;BME280;17749;51.962;8.560;2023-05-27T16:57:51;100671.53;;;20.37;66.51
31096;BME280;17749;51.962;8.560;2023-05-27T17:00:18;100665.81;;;20.29;68.52
31096;BME280;17749;51.962;8.560;2023-05-27T17:02:45;100670.22;;;20.30;69.33
31096;BME280;17749;51.962;8.560;2023-05-27T17:05:13;100667.66;;;20.28;68.86
31096;BME280;17749;51.962;8.560;2023-05-27T17:07:40;100662.56;;;20.24;69.48
31096;BME280;17749;51.962;8.560;2023-05-27T17:10:08;100662.56;;;20.24;69.77
31096;BME280;17749;51.962;8.560;2023-05-27T17:12:35;100665.28;;;20.24;70.06
31096;BME280;17749;51.962;8.560;2023-05-27T17:15:02;100661.81;;;20.22;70.66
31096;BME280;17749;51.962;8.560;2023-05-27T17:17:29;100658.34;;;20.20;70.15
31096;BME280;17749;51.962;8.560;2023-05-27T17:19:56;100664.28;;;20.12;70.13
31096;BME280;17749;51.962;8.560;2023-05-27T17:22:23;100656.53;;;20.07;70.45
31096;BME280;17749;51.962;8.560;2023-05-27T17:24:50;100661.41;;;20.02;70.83
31096;BME280;17749;51.962;8.560;2023-05-27T17:27:17;100662.59;;;19.98;71.36
31096;BME280;17749;51.962;8.560;2023-05-27T17:29:44;100657.72;;;19.90;70.50
31096;BME280;17749;51.962;8.560;2023-05-27T17:32:14;100660.75;;;19.86;71.10
31096;BME280;17749;51.962;8.560;2023-05-27T17:34:41;100657.06;;;19.74;71.14
31096;BME280;17749;51.962;8.560;2023-05-27T17:37:09;100651.03;;;19.70;70.76
31096;BME280;17749;51.962;8.560;2023-05-27T17:39:36;100660.94;;;19.70;71.46
31096;BME280;17749;51.962;8.560;2023-05-27T17:42:03;100656.53;;;19.69;72.13
31096;BME280;17749;51.962;8.560;2023-05-27T17:44:30;100657.78;;;19.63;71.86
31096;BME280;17749;51.962;8.560;2023-05-27T17:46:57;100667.59;;;19.64;72.81
31096;BME280;17749;51.962;8.560;2023-05-27T17:49:24;100657.44;;;19.55;72.68
31096;BME280;17749;51.962;8.560;2023-05-27T17:51:51;100654.19;;;19.50;72.73
31096;BME280;17749;51.962;8.560;2023-05-27T17:54:18;100653.66;;;19.45;72.39
31096;BME280;17749;51.962;8.560;2023-05-27T17:56:45;100650.38;;;19.40;72.26
31096;BME280;17749;51.962;8.560;2023-05-27T17:59:13;100649.75;;;19.36;72.92
31096;BME280;17749;51.962;8.560;2023-05-27T18:01:40;100650.91;;;19.32;73.80
31096;BME280;17749;51.962;8.560;2023-05-27T18:04:09;100650.25;;;19.29;73.85
31096;BME280;17749;51.962;8.560;2023-05-27T18:06:36;100652.41;;;19.23;73.64
31096;BME280;17749;51.962;8.560;2023-05-27T18:09:04;100645.47;;;19.19;74.48
31096;BME280;17749;51.962;8.560;2023-05-27T18:11:35;100651.94;;;19.17;74.04